Seaguardian 12 Twin — SVA6420 — position and weather

sailwx.info

Track history (hours):
 
Tides and Currents Weather Stations Pressure Air Temp Water Temp Dewpoint Dewpoint Depression Visibility Wind Speed Wind Dir Waves Ship Positions

Seaguardian 12 Twin

Last reported at 2017-Oct-03 09:58 UTC. Time now 2017-Dec-17 08:10 UTC.
Position N 37°43' E 023°51'.
Warning: this ship's position is months out of date.

Length 11 m; draft 1.8 m.

Type: Pollution control. MMSI: 239869100.

Date/timePositionNaut miles runAvg speedWind from/ knotsBaromVisibWave heightAir tempDewpointWater temp
2017-Oct-03 09:58N 37°43' E 023°51'612.7
2017-Oct-03 09:30N 37°47' E 023°46'612.8
2017-Oct-03 09:00N 37°52' E 023°41'612.1
2017-Oct-03 08:30N 37°57' E 023°36'1 2.0
2017-Oct-03 08:01N 37°58' E 023°37'0 0.0
2017-Oct-03 07:31N 37°58' E 023°37'0 0.0
2017-Oct-03 07:00N 37°58' E 023°37'0 0.0
2017-Oct-03 06:30N 37°58' E 023°37'0 0.0
2017-Oct-03 06:00N 37°58' E 023°37'0 0.0
2017-Oct-03 05:30N 37°58' E 023°37'0 0.1
2017-Oct-03 05:00N 37°58' E 023°37'2 0.1
2017-Oct-02 13:24N 37°58' E 023°34'1 3.1
2017-Oct-02 13:00N 37°57' E 023°35'1 1.3
2017-Oct-02 12:30N 37°56' E 023°34'0 0.2
2017-Oct-02 12:00N 37°56' E 023°34'0 0.4
2017-Oct-02 11:30N 37°56' E 023°34'0 0.8
2017-Oct-02 11:00N 37°56' E 023°33'1 1.7
2017-Oct-02 10:30N 37°56' E 023°32'0 1.0
2017-Oct-02 10:00N 37°57' E 023°33'1 1.5
2017-Oct-02 09:30N 37°56' E 023°34'1 1.6
2017-Oct-02 09:00N 37°56' E 023°33'1 1.4
2017-Oct-02 08:30N 37°56' E 023°33'1 1.9
2017-Oct-02 08:01N 37°57' E 023°33'1 1.2
2017-Oct-02 07:30N 37°58' E 023°34'0 0.0
2017-Oct-02 07:00N 37°58' E 023°34'0 0.0
2017-Oct-02 06:30N 37°58' E 023°34'0 0.0
2017-Oct-02 06:01N 37°58' E 023°34'0 0.0
2017-Oct-02 05:30N 37°58' E 023°34'0 0.0
2017-Oct-02 05:00N 37°58' E 023°34'0 0.0
2017-Oct-01 10:35N 37°58' E 023°34'0 0.0
2017-Oct-01 10:30N 37°58' E 023°34'1 2.4
2017-Oct-01 10:00N 37°56' E 023°34'1 1.0
2017-Oct-01 09:30N 37°56' E 023°34'1 1.2
2017-Oct-01 09:00N 37°56' E 023°33'1 1.5
2017-Oct-01 08:30N 37°56' E 023°32'1 2.3
2017-Oct-01 08:00N 37°56' E 023°34'0 0.6
2017-Oct-01 07:30N 37°56' E 023°34'1 2.2
2017-Oct-01 07:00N 37°56' E 023°32'1 2.4
2017-Oct-01 06:30N 37°56' E 023°34'1 2.5
2017-Oct-01 06:00N 37°56' E 023°32'1 1.6
2017-Oct-01 05:30N 37°56' E 023°33'1 2.6
2017-Oct-01 05:00N 37°57' E 023°34'  
2017-Sep-27 12:37N 37°58' E 023°34'0 0.0
2017-Sep-27 12:15N 37°58' E 023°34'0 0.0
2017-Sep-27 11:54N 37°58' E 023°34'0 0.0
2017-Sep-27 11:31N 37°58' E 023°34'0 0.0
2017-Sep-27 11:01N 37°58' E 023°34'0 0.0
2017-Sep-27 10:31N 37°58' E 023°34'0 0.0
2017-Sep-27 10:01N 37°58' E 023°34'0 0.0
2017-Sep-27 09:30N 37°58' E 023°34'0 0.0
2017-Sep-27 09:01N 37°58' E 023°34'0 0.0
2017-Sep-27 08:31N 37°58' E 023°34'0 0.0
2017-Sep-27 08:01N 37°58' E 023°34'0 0.0
2017-Sep-27 07:31N 37°58' E 023°34'0 0.0
2017-Sep-27 07:00N 37°58' E 023°34'0 0.0
2017-Sep-27 06:31N 37°58' E 023°34'0 0.0
2017-Sep-27 06:01N 37°58' E 023°34'0 0.0
2017-Sep-27 05:31N 37°58' E 023°34'0 0.0
2017-Sep-27 05:00N 37°58' E 023°34'0 0.0
2017-Sep-26 13:41N 37°58' E 023°34'0 1.3
2017-Sep-26 13:30N 37°57' E 023°34'4 7.5
2017-Sep-26 13:00N 37°54' E 023°31'2 3.6
2017-Sep-26 12:30N 37°53' E 023°29'4 8.3
2017-Sep-26 12:00N 37°56' E 023°33'1 1.0
2017-Sep-26 11:30N 37°56' E 023°33'0 0.5
2017-Sep-26 11:00N 37°55' E 023°33'1 2.2
2017-Sep-26 10:30N 37°57' E 023°33'0 0.4
2017-Sep-26 10:00N 37°56' E 023°32'0 0.1
2017-Sep-26 09:30N 37°56' E 023°32'0 0.0
2017-Sep-26 09:00N 37°56' E 023°32'0 0.4
2017-Sep-26 08:30N 37°56' E 023°33'1 2.0
2017-Sep-26 08:00N 37°56' E 023°34'1 2.5
2017-Sep-26 07:30N 37°56' E 023°32'1 1.9
2017-Sep-26 07:00N 37°56' E 023°33'1 2.5
2017-Sep-26 06:30N 37°57' E 023°35'1 2.3
2017-Sep-26 06:00N 37°58' E 023°34'0 0.0
2017-Sep-26 05:30N 37°58' E 023°34'0 0.0
2017-Sep-26 05:00N 37°58' E 023°34'0 0.0
2017-Sep-25 14:07N 37°58' E 023°34'0 1.0
2017-Sep-25 14:00N 37°58' E 023°34'510.4
2017-Sep-25 13:30N 37°55' E 023°39'4 7.2
2017-Sep-25 13:00N 37°53' E 023°43'1 2.0
2017-Sep-25 12:30N 37°54' E 023°43'0 0.3
2017-Sep-25 12:00N 37°54' E 023°43'0 0.0
2017-Sep-25 11:30N 37°54' E 023°43'0 0.0
2017-Sep-25 11:00N 37°54' E 023°43'0 0.1
2017-Sep-25 10:30N 37°54' E 023°43'0 0.1
2017-Sep-25 10:00N 37°54' E 023°43'0 0.1
2017-Sep-25 09:30N 37°54' E 023°43'0 0.1
2017-Sep-25 09:00N 37°54' E 023°43'0 0.2
2017-Sep-25 08:30N 37°54' E 023°43'1 2.0
2017-Sep-25 08:00N 37°53' E 023°43'0 0.4
2017-Sep-25 07:31N 37°53' E 023°43'1 1.6
2017-Sep-25 07:00N 37°54' E 023°43'1 2.0
2017-Sep-25 06:30N 37°55' E 023°42'2 4.8
2017-Sep-25 06:00N 37°56' E 023°40'3 5.2
2017-Sep-25 05:30N 37°56' E 023°36'2 4.9
2017-Sep-25 05:01N 37°58' E 023°34'0 0.0
2017-Sep-24 13:49N 37°58' E 023°34'1 4.2
2017-Sep-24 13:31N 37°57' E 023°35'2 4.6
2017-Sep-24 13:00N 37°56' E 023°38'2 3.6
2017-Sep-24 12:30N 37°56' E 023°40'2 3.1
2017-Sep-24 12:00N 37°55' E 023°42'1 2.6
2017-Sep-24 11:31N 37°54' E 023°42'2 3.4
2017-Sep-24 11:00N 37°56' E 023°41'2 4.7
2017-Sep-24 10:30N 37°56' E 023°38'3 5.6
2017-Sep-24 10:01N 37°57' E 023°35'2 3.9
2017-Sep-24 09:30N 37°56' E 023°32'2 3.7
2017-Sep-24 09:00N 37°57' E 023°35'1 0.4
2017-Sep-24 06:45N 37°58' E 023°34'0 0.1
2017-Sep-24 06:30N 37°58' E 023°34'2 3.5
2017-Sep-24 06:00N 37°56' E 023°34'1 2.4
2017-Sep-24 05:30N 37°57' E 023°34'0 0.9
2017-Sep-24 05:00N 37°58' E 023°34'  
Track history (hours):
 
Tides and Currents Weather Stations Pressure Air Temp Water Temp Dewpoint Dewpoint Depression Visibility Wind Speed Wind Dir Waves Ship Positions

Seaguardian 12 Twin

Last reported at 2017-Oct-03 09:58 UTC. Time now 2017-Dec-17 08:10 UTC.
Position N 37°43' E 023°51'.
Warning: this ship's position is months out of date.

Length 11 m; draft 1.8 m.

Type: Pollution control. MMSI: 239869100.

Date/timePositionNaut miles runAvg speedWind from/ knotsBaromVisibWave heightAir tempDewpointWater temp
2017-Oct-03 09:58N 37°43' E 023°51'612.7
2017-Oct-03 09:30N 37°47' E 023°46'612.8
2017-Oct-03 09:00N 37°52' E 023°41'612.1
2017-Oct-03 08:30N 37°57' E 023°36'1 2.0
2017-Oct-03 08:01N 37°58' E 023°37'0 0.0
2017-Oct-03 07:31N 37°58' E 023°37'0 0.0
2017-Oct-03 07:00N 37°58' E 023°37'0 0.0
2017-Oct-03 06:30N 37°58' E 023°37'0 0.0
2017-Oct-03 06:00N 37°58' E 023°37'0 0.0
2017-Oct-03 05:30N 37°58' E 023°37'0 0.1
2017-Oct-03 05:00N 37°58' E 023°37'2 0.1
2017-Oct-02 13:24N 37°58' E 023°34'1 3.1
2017-Oct-02 13:00N 37°57' E 023°35'1 1.3
2017-Oct-02 12:30N 37°56' E 023°34'0 0.2
2017-Oct-02 12:00N 37°56' E 023°34'0 0.4
2017-Oct-02 11:30N 37°56' E 023°34'0 0.8
2017-Oct-02 11:00N 37°56' E 023°33'1 1.7
2017-Oct-02 10:30N 37°56' E 023°32'0 1.0
2017-Oct-02 10:00N 37°57' E 023°33'1 1.5
2017-Oct-02 09:30N 37°56' E 023°34'1 1.6
2017-Oct-02 09:00N 37°56' E 023°33'1 1.4
2017-Oct-02 08:30N 37°56' E 023°33'1 1.9
2017-Oct-02 08:01N 37°57' E 023°33'1 1.2
2017-Oct-02 07:30N 37°58' E 023°34'0 0.0
2017-Oct-02 07:00N 37°58' E 023°34'0 0.0
2017-Oct-02 06:30N 37°58' E 023°34'0 0.0
2017-Oct-02 06:01N 37°58' E 023°34'0 0.0
2017-Oct-02 05:30N 37°58' E 023°34'0 0.0
2017-Oct-02 05:00N 37°58' E 023°34'0 0.0
2017-Oct-01 10:35N 37°58' E 023°34'0 0.0
2017-Oct-01 10:30N 37°58' E 023°34'1 2.4
2017-Oct-01 10:00N 37°56' E 023°34'1 1.0
2017-Oct-01 09:30N 37°56' E 023°34'1 1.2
2017-Oct-01 09:00N 37°56' E 023°33'1 1.5
2017-Oct-01 08:30N 37°56' E 023°32'1 2.3
2017-Oct-01 08:00N 37°56' E 023°34'0 0.6
2017-Oct-01 07:30N 37°56' E 023°34'1 2.2
2017-Oct-01 07:00N 37°56' E 023°32'1 2.4
2017-Oct-01 06:30N 37°56' E 023°34'1 2.5
2017-Oct-01 06:00N 37°56' E 023°32'1 1.6
2017-Oct-01 05:30N 37°56' E 023°33'1 2.6
2017-Oct-01 05:00N 37°57' E 023°34'  
2017-Sep-27 12:37N 37°58' E 023°34'0 0.0
2017-Sep-27 12:15N 37°58' E 023°34'0 0.0
2017-Sep-27 11:54N 37°58' E 023°34'0 0.0
2017-Sep-27 11:31N 37°58' E 023°34'0 0.0
2017-Sep-27 11:01N 37°58' E 023°34'0 0.0
2017-Sep-27 10:31N 37°58' E 023°34'0 0.0
2017-Sep-27 10:01N 37°58' E 023°34'0 0.0
2017-Sep-27 09:30N 37°58' E 023°34'0 0.0
2017-Sep-27 09:01N 37°58' E 023°34'0 0.0
2017-Sep-27 08:31N 37°58' E 023°34'0 0.0
2017-Sep-27 08:01N 37°58' E 023°34'0 0.0
2017-Sep-27 07:31N 37°58' E 023°34'0 0.0
2017-Sep-27 07:00N 37°58' E 023°34'0 0.0
2017-Sep-27 06:31N 37°58' E 023°34'0 0.0
2017-Sep-27 06:01N 37°58' E 023°34'0 0.0
2017-Sep-27 05:31N 37°58' E 023°34'0 0.0
2017-Sep-27 05:00N 37°58' E 023°34'0 0.0
2017-Sep-26 13:41N 37°58' E 023°34'0 1.3
2017-Sep-26 13:30N 37°57' E 023°34'4 7.5
2017-Sep-26 13:00N 37°54' E 023°31'2 3.6
2017-Sep-26 12:30N 37°53' E 023°29'4 8.3
2017-Sep-26 12:00N 37°56' E 023°33'1 1.0
2017-Sep-26 11:30N 37°56' E 023°33'0 0.5
2017-Sep-26 11:00N 37°55' E 023°33'1 2.2
2017-Sep-26 10:30N 37°57' E 023°33'0 0.4
2017-Sep-26 10:00N 37°56' E 023°32'0 0.1
2017-Sep-26 09:30N 37°56' E 023°32'0 0.0
2017-Sep-26 09:00N 37°56' E 023°32'0 0.4
2017-Sep-26 08:30N 37°56' E 023°33'1 2.0
2017-Sep-26 08:00N 37°56' E 023°34'1 2.5
2017-Sep-26 07:30N 37°56' E 023°32'1 1.9
2017-Sep-26 07:00N 37°56' E 023°33'1 2.5
2017-Sep-26 06:30N 37°57' E 023°35'1 2.3
2017-Sep-26 06:00N 37°58' E 023°34'0 0.0
2017-Sep-26 05:30N 37°58' E 023°34'0 0.0
2017-Sep-26 05:00N 37°58' E 023°34'0 0.0
2017-Sep-25 14:07N 37°58' E 023°34'0 1.0
2017-Sep-25 14:00N 37°58' E 023°34'510.4
2017-Sep-25 13:30N 37°55' E 023°39'4 7.2
2017-Sep-25 13:00N 37°53' E 023°43'1 2.0
2017-Sep-25 12:30N 37°54' E 023°43'0 0.3
2017-Sep-25 12:00N 37°54' E 023°43'0 0.0
2017-Sep-25 11:30N 37°54' E 023°43'0 0.0
2017-Sep-25 11:00N 37°54' E 023°43'0 0.1
2017-Sep-25 10:30N 37°54' E 023°43'0 0.1
2017-Sep-25 10:00N 37°54' E 023°43'0 0.1
2017-Sep-25 09:30N 37°54' E 023°43'0 0.1
2017-Sep-25 09:00N 37°54' E 023°43'0 0.2
2017-Sep-25 08:30N 37°54' E 023°43'1 2.0
2017-Sep-25 08:00N 37°53' E 023°43'0 0.4
2017-Sep-25 07:31N 37°53' E 023°43'1 1.6
2017-Sep-25 07:00N 37°54' E 023°43'1 2.0
2017-Sep-25 06:30N 37°55' E 023°42'2 4.8
2017-Sep-25 06:00N 37°56' E 023°40'3 5.2
2017-Sep-25 05:30N 37°56' E 023°36'2 4.9
2017-Sep-25 05:01N 37°58' E 023°34'0 0.0
2017-Sep-24 13:49N 37°58' E 023°34'1 4.2
2017-Sep-24 13:31N 37°57' E 023°35'2 4.6
2017-Sep-24 13:00N 37°56' E 023°38'2 3.6
2017-Sep-24 12:30N 37°56' E 023°40'2 3.1
2017-Sep-24 12:00N 37°55' E 023°42'1 2.6
2017-Sep-24 11:31N 37°54' E 023°42'2 3.4
2017-Sep-24 11:00N 37°56' E 023°41'2 4.7
2017-Sep-24 10:30N 37°56' E 023°38'3 5.6
2017-Sep-24 10:01N 37°57' E 023°35'2 3.9
2017-Sep-24 09:30N 37°56' E 023°32'2 3.7
2017-Sep-24 09:00N 37°57' E 023°35'1 0.4
2017-Sep-24 06:45N 37°58' E 023°34'0 0.1
2017-Sep-24 06:30N 37°58' E 023°34'2 3.5
2017-Sep-24 06:00N 37°56' E 023°34'1 2.4
2017-Sep-24 05:30N 37°57' E 023°34'0 0.9
2017-Sep-24 05:00N 37°58' E 023°34'  

Dump ship's entire track history